Hovedside
METAR-TAF:

METAR-TAF

Lufthavner :

Kano, Nigeria

breddegrad: 12-03N, lengdegrad: 008-32E, høyde over havet: 476 m

Gjeldene værobservasjon

Denne rapporten ble laget for 1 time og 45 minutter siden, klokken 14:00 UTC
Vind 8 kt fra Vest-sørvest
Temperatur 31°C
Luftfuktighet 63%
Trykk 1014 hPa
Sikt 10 km eller mer
Spredte skyer i en høyde av 1200 ft

METAR: DNKN 171400Z 24008KT 9999 SCT012 31/23 Q1014 NOSIG

Tid: 16:45 (15:45 UTC)


TAF: fraværende

Værobservasjoner og værvarsel for over 4000 flyplasser (METAR- og TAF-rapporter).

Tilgjengelige stasjoner er representert av de røde og gule prikkene på kartet.

Hold musepekeren over prikken for å se navnet på stasjonen.

Klikk så for å se værobservasjoner og -varsler.

For å forandre kartet kan du klikke på den grønne knappen med svart kryss for å zoome inn, på den grønne knappen med strek for å zoome ut, eller på de grønne pilene for å se tilstøtende kart.


METAR-TAF: